createdAt,value
2023-01-19T00:10:58.707Z,96750
2023-01-19T00:22:59.109Z,96760
2023-01-19T00:34:58.632Z,96750
2023-01-19T00:46:58.628Z,96770
2023-01-19T00:58:58.738Z,96790
2023-01-19T01:10:58.689Z,96790
2023-01-19T01:22:59.139Z,96800
2023-01-19T01:34:58.711Z,96800
2023-01-19T01:46:58.715Z,96810
2023-01-19T01:58:58.620Z,96780
2023-01-19T02:10:58.622Z,96790
2023-01-19T02:22:58.965Z,96790
2023-01-19T02:34:58.677Z,96790
2023-01-19T02:46:58.707Z,96790
2023-01-19T02:58:58.768Z,96810
2023-01-19T03:10:58.752Z,96790
2023-01-19T03:22:59.207Z,96780
2023-01-19T03:34:58.711Z,96790
2023-01-19T03:46:58.706Z,96800
2023-01-19T03:58:58.688Z,96810
2023-01-19T04:10:58.645Z,96800
2023-01-19T04:22:59.054Z,96810
2023-01-19T04:34:58.742Z,96830
2023-01-19T04:46:58.712Z,96820
2023-01-19T04:58:58.712Z,96800
2023-01-19T05:10:58.643Z,96810
2023-01-19T05:22:59.213Z,96820
2023-01-19T05:34:58.712Z,96830
2023-01-19T05:46:58.815Z,96830
2023-01-19T05:58:58.718Z,96820
2023-01-19T06:10:58.617Z,96830
2023-01-19T06:22:59.275Z,96830
2023-01-19T06:34:58.687Z,96830
2023-01-19T06:47:15.078Z,96830
2023-01-19T06:58:58.734Z,96860
2023-01-19T07:11:24.591Z,96860
2023-01-19T07:22:59.179Z,96870
2023-01-19T07:34:58.727Z,96880
2023-01-19T07:46:58.743Z,96890
2023-01-19T07:58:58.679Z,96910
2023-01-19T08:10:58.626Z,96910
2023-01-19T08:22:58.991Z,96920
2023-01-19T08:34:58.641Z,96920
2023-01-19T08:46:58.642Z,96930
2023-01-19T08:59:08.654Z,96940
2023-01-19T09:10:58.724Z,96950
2023-01-19T09:22:58.762Z,96970
2023-01-19T09:34:58.719Z,96970
2023-01-19T09:46:58.623Z,97010
2023-01-19T09:58:58.736Z,96990
2023-01-19T10:10:58.742Z,97000
2023-01-19T10:22:59.229Z,97000
2023-01-19T10:34:58.713Z,97010
2023-01-19T10:46:58.793Z,97020
2023-01-19T10:58:58.789Z,97010
2023-01-19T11:10:58.714Z,97010
2023-01-19T11:22:58.701Z,97010
2023-01-19T11:34:58.619Z,97020
2023-01-19T11:46:58.781Z,97020
2023-01-19T11:58:58.635Z,97020
2023-01-19T12:10:58.623Z,97020
2023-01-19T12:22:59.750Z,97020
2023-01-19T12:34:58.713Z,97020
2023-01-19T12:46:58.630Z,97020
2023-01-19T12:58:58.713Z,97020
2023-01-19T13:10:58.688Z,97020
2023-01-19T13:22:58.704Z,97030
2023-01-19T13:34:58.909Z,97020
2023-01-19T13:46:58.628Z,97020
2023-01-19T13:58:58.620Z,97030
2023-01-19T14:10:58.736Z,97050
2023-01-19T14:22:58.680Z,97050
2023-01-19T14:34:58.617Z,97060
2023-01-19T14:46:58.906Z,97060
2023-01-19T14:58:58.752Z,97070
2023-01-19T15:10:58.632Z,97070
2023-01-19T15:22:58.627Z,97080
2023-01-19T15:34:58.728Z,97100
2023-01-19T15:46:58.731Z,97100
2023-01-19T15:58:58.766Z,97100
2023-01-19T16:10:58.710Z,97120
2023-01-19T16:23:13.427Z,97130
2023-01-19T16:34:58.737Z,97120
2023-01-19T16:46:58.626Z,97130
2023-01-19T16:58:58.729Z,97150
2023-01-19T17:10:58.737Z,97160
2023-01-19T17:22:58.618Z,97170
2023-01-19T17:34:58.625Z,97170
2023-01-19T17:46:59.943Z,97180
2023-01-19T17:58:58.749Z,97190
2023-01-19T18:10:58.727Z,97200
2023-01-19T18:22:58.693Z,97200
2023-01-19T18:34:58.649Z,97190
2023-01-19T18:46:58.750Z,97210
2023-01-19T18:58:58.717Z,97210
2023-01-19T19:10:58.653Z,97210
2023-01-19T19:22:58.724Z,97220
2023-01-19T19:34:58.615Z,97210
2023-01-19T19:46:58.631Z,97210
2023-01-19T19:58:58.721Z,97220
2023-01-19T20:10:58.728Z,97230
2023-01-19T20:22:58.728Z,97250
2023-01-19T20:34:58.627Z,97250
2023-01-19T20:46:58.707Z,97270
2023-01-19T20:58:58.731Z,97270
2023-01-19T21:10:58.749Z,97270
2023-01-19T21:22:58.721Z,97290
2023-01-19T21:34:58.625Z,97310
2023-01-19T21:46:58.754Z,97310
2023-01-19T21:58:58.645Z,97310
2023-01-19T22:10:58.625Z,97320
2023-01-19T22:22:58.699Z,97350
2023-01-19T22:34:58.702Z,97360
2023-01-19T22:46:58.657Z,97360
2023-01-19T22:58:58.668Z,97360
2023-01-19T23:10:58.709Z,97370
2023-01-19T23:22:58.620Z,97380
2023-01-19T23:34:58.624Z,97390
2023-01-19T23:46:58.640Z,97380
2023-01-19T23:58:58.715Z,97390
